createdAt,value
2022-09-07T00:01:19.085Z,101181.83
2022-09-07T00:03:47.539Z,101181.05
2022-09-07T00:06:16.283Z,101176.55
2022-09-07T00:08:44.594Z,101172.93
2022-09-07T00:11:17.131Z,101174.00
2022-09-07T00:13:47.687Z,101170.35
2022-09-07T00:16:19.564Z,101167.33
2022-09-07T00:18:48.458Z,101173.15
2022-09-07T00:21:18.048Z,101154.65
2022-09-07T00:23:48.335Z,101167.48
2022-09-07T00:26:20.420Z,101165.77
2022-09-07T00:28:49.470Z,101163.99
2022-09-07T00:31:22.938Z,101162.66
2022-09-07T00:33:52.602Z,101159.30
2022-09-07T00:36:22.729Z,101158.56
2022-09-07T00:38:51.009Z,101157.88
2022-09-07T00:41:21.276Z,101157.05
2022-09-07T00:43:55.890Z,101156.15
2022-09-07T00:46:27.215Z,101155.39
2022-09-07T00:49:12.790Z,101160.01
2022-09-07T00:51:53.732Z,101158.09
2022-09-07T00:54:28.230Z,101160.06
2022-09-07T00:56:56.662Z,101155.64
2022-09-07T00:59:29.437Z,101155.89
2022-09-07T01:01:58.057Z,101153.05
2022-09-07T01:04:31.210Z,101155.79
2022-09-07T01:06:59.985Z,101156.09
2022-09-07T01:09:31.103Z,101158.80
2022-09-07T01:12:00.942Z,101160.84
2022-09-07T01:14:33.881Z,101160.51
2022-09-07T01:17:20.953Z,101163.46
2022-09-07T01:19:49.564Z,101165.34
2022-09-07T01:22:36.253Z,101163.70
2022-09-07T01:25:14.382Z,101164.23
2022-09-07T01:28:08.841Z,101159.05
2022-09-07T01:30:39.268Z,101157.44
2022-09-07T01:33:34.022Z,101159.13
2022-09-07T01:36:34.300Z,101157.70
2022-09-07T01:39:06.538Z,101155.48
2022-09-07T01:41:58.233Z,101154.48
2022-09-07T01:44:30.407Z,101157.43
2022-09-07T01:47:33.102Z,101160.02
2022-09-07T01:50:13.399Z,101163.06
2022-09-07T01:52:51.205Z,101155.34
2022-09-07T01:55:27.338Z,101166.05
2022-09-07T01:58:04.251Z,101168.20
2022-09-07T02:00:35.856Z,101164.91
2022-09-07T02:03:19.951Z,101163.79
2022-09-07T02:06:07.530Z,101164.50
2022-09-07T02:08:57.557Z,101163.89
2022-09-07T02:11:48.146Z,101159.41
2022-09-07T02:14:23.709Z,101159.83
2022-09-07T02:17:05.485Z,101156.02
2022-09-07T02:19:42.938Z,101155.42
2022-09-07T02:22:16.955Z,101153.90
2022-09-07T02:24:51.217Z,101155.48
2022-09-07T02:27:27.679Z,101151.38
2022-09-07T02:29:55.928Z,101149.05
2022-09-07T02:32:24.170Z,101146.02
2022-09-07T02:34:52.225Z,101145.55
2022-09-07T02:37:21.839Z,101150.80
2022-09-07T02:39:50.059Z,101149.33
2022-09-07T02:42:18.080Z,101148.04
2022-09-07T02:44:48.319Z,101149.29
2022-09-07T02:47:26.509Z,101146.71
2022-09-07T02:50:22.101Z,101140.61
2022-09-07T02:53:22.567Z,101136.20
2022-09-07T02:56:02.620Z,101132.09
2022-09-07T02:58:52.326Z,101126.66
2022-09-07T03:01:38.541Z,101130.25
2022-09-07T03:04:29.801Z,101128.08
2022-09-07T03:07:25.306Z,101127.78
2022-09-07T03:09:57.747Z,101126.69
2022-09-07T03:12:37.826Z,101119.02
2022-09-07T03:15:06.738Z,101122.65
2022-09-07T03:17:34.777Z,101120.15
2022-09-07T03:20:03.483Z,101120.82
2022-09-07T03:22:33.521Z,101123.59
2022-09-07T03:25:04.386Z,101125.45
2022-09-07T03:27:33.183Z,101130.40
2022-09-07T03:30:02.104Z,101127.08
2022-09-07T03:32:32.372Z,101125.60
2022-09-07T03:35:01.586Z,101124.27
2022-09-07T03:37:29.992Z,101124.20
2022-09-07T03:39:58.351Z,101126.30
2022-09-07T03:42:26.318Z,101125.58
2022-09-07T03:44:54.550Z,101121.08
2022-09-07T03:47:22.940Z,101122.00
2022-09-07T03:49:51.926Z,101125.25
2022-09-07T03:52:19.816Z,101126.75
2022-09-07T03:54:48.040Z,101126.73
2022-09-07T03:57:16.114Z,101127.09
2022-09-07T03:59:43.930Z,101123.61
2022-09-07T04:02:12.269Z,101125.27
2022-09-07T04:04:42.321Z,101126.66
2022-09-07T04:07:10.352Z,101124.97
2022-09-07T04:09:38.509Z,101125.61
2022-09-07T04:12:06.381Z,101125.48
2022-09-07T04:14:34.332Z,101126.40
2022-09-07T04:17:02.651Z,101129.43
2022-09-07T04:19:30.704Z,101131.46
2022-09-07T04:21:58.748Z,101130.39
2022-09-07T04:24:26.926Z,101131.59
2022-09-07T04:26:54.903Z,101130.63
2022-09-07T04:29:22.871Z,101130.48
2022-09-07T04:31:51.015Z,101132.27
2022-09-07T04:34:18.930Z,101134.16
2022-09-07T04:36:47.112Z,101119.03
2022-09-07T04:39:15.232Z,101125.23
2022-09-07T04:41:43.104Z,101128.58
2022-09-07T04:44:14.891Z,101132.61
2022-09-07T04:46:45.273Z,101128.16
2022-09-07T04:49:14.542Z,101133.22
2022-09-07T04:51:44.471Z,101136.77
2022-09-07T04:54:13.592Z,101127.10
2022-09-07T04:56:42.076Z,101142.70
2022-09-07T04:59:10.092Z,101141.87
2022-09-07T05:01:38.401Z,101141.19
2022-09-07T05:04:06.396Z,101139.66
2022-09-07T05:06:34.551Z,101138.19
2022-09-07T05:09:03.055Z,101133.92
2022-09-07T05:11:30.977Z,101130.69
2022-09-07T05:14:00.843Z,101131.69
2022-09-07T05:16:30.636Z,101135.10
2022-09-07T05:19:01.385Z,101135.66
2022-09-07T05:21:32.116Z,101130.36
2022-09-07T05:24:01.227Z,101134.40
2022-09-07T05:26:31.869Z,101133.64
2022-09-07T05:31:52.314Z,101138.68
2022-09-07T05:34:35.798Z,101126.05
2022-09-07T05:37:03.884Z,101124.02
2022-09-07T05:39:32.046Z,101138.66
2022-09-07T05:41:59.935Z,101137.16
2022-09-07T05:44:43.827Z,101137.21
2022-09-07T05:47:12.755Z,101141.04
2022-09-07T05:49:40.900Z,101139.09
2022-09-07T05:52:08.742Z,101137.60
2022-09-07T05:54:36.717Z,101135.75
2022-09-07T05:57:05.098Z,101128.92
2022-09-07T05:59:33.935Z,101123.75
2022-09-07T06:02:01.983Z,101119.91
2022-09-07T06:04:30.058Z,101120.28
2022-09-07T06:07:20.969Z,101120.62
2022-09-07T06:12:34.707Z,101127.56
2022-09-07T06:15:03.091Z,101122.23
2022-09-07T06:17:31.375Z,101120.37
2022-09-07T06:19:59.219Z,101114.37
2022-09-07T06:22:31.004Z,101102.70
2022-09-07T06:24:59.583Z,101098.79
2022-09-07T06:27:28.345Z,101096.93
2022-09-07T06:29:56.597Z,101093.79
2022-09-07T06:35:13.722Z,101097.85
2022-09-07T06:37:42.198Z,101096.89
2022-09-07T06:40:11.785Z,101096.10
2022-09-07T06:42:40.110Z,101098.02
2022-09-07T06:45:11.627Z,101098.02
2022-09-07T06:47:41.115Z,101101.13
2022-09-07T06:50:09.588Z,101103.64
2022-09-07T06:55:27.986Z,101099.08
2022-09-07T06:57:56.025Z,101097.33
2022-09-07T07:00:23.952Z,101102.09
2022-09-07T07:02:52.425Z,101100.85
2022-09-07T07:05:20.461Z,101097.63
2022-09-07T07:07:57.900Z,101086.86
2022-09-07T07:10:25.730Z,101111.89
2022-09-07T07:12:57.939Z,101122.17
2022-09-07T07:15:28.651Z,101129.97
2022-09-07T07:18:05.997Z,101126.45
2022-09-07T07:20:42.538Z,101127.39
2022-09-07T07:23:11.974Z,101129.87
2022-09-07T07:25:39.777Z,101134.70
2022-09-07T07:31:00.674Z,101142.89
2022-09-07T07:33:33.775Z,101142.48
2022-09-07T07:36:11.832Z,101140.04
2022-09-07T07:44:20.923Z,101124.98
2022-09-07T07:46:50.596Z,101118.10
2022-09-07T07:49:18.994Z,101116.77
2022-09-07T07:54:38.406Z,101110.63
2022-09-07T07:57:06.795Z,101109.69
2022-09-07T07:59:35.547Z,101110.54
2022-09-07T08:02:05.821Z,101106.80
2022-09-07T08:04:34.863Z,101105.33
2022-09-07T08:07:08.643Z,101104.83
2022-09-07T08:09:42.268Z,101099.16
2022-09-07T08:12:13.180Z,101102.42
2022-09-07T08:14:41.803Z,101100.08
2022-09-07T08:17:15.980Z,101085.23
2022-09-07T08:19:45.010Z,101096.94
2022-09-07T08:22:13.382Z,101090.09
2022-09-07T08:24:41.223Z,101093.46
2022-09-07T08:27:09.303Z,101090.84
2022-09-07T08:29:37.140Z,101080.24
2022-09-07T08:32:06.863Z,101074.55
2022-09-07T08:34:36.602Z,101074.92
2022-09-07T08:37:04.534Z,101071.19
2022-09-07T08:39:32.633Z,101067.63
2022-09-07T08:42:10.988Z,101068.84
2022-09-07T08:44:43.699Z,101070.88
2022-09-07T08:47:38.697Z,101071.84
2022-09-07T08:50:23.161Z,101054.23
2022-09-07T08:53:15.265Z,101066.70
2022-09-07T08:56:04.718Z,101061.91
2022-09-07T08:58:49.155Z,101054.21
2022-09-07T09:01:31.761Z,101053.75
2022-09-07T09:04:17.238Z,101049.69
2022-09-07T09:07:11.562Z,101052.23
2022-09-07T09:09:46.198Z,101048.12
2022-09-07T09:12:22.364Z,101047.71
2022-09-07T09:15:18.204Z,101041.17
2022-09-07T09:17:55.874Z,101034.78
2022-09-07T09:20:31.153Z,101028.96
2022-09-07T09:23:06.887Z,101027.70
2022-09-07T09:25:38.376Z,101027.77
2022-09-07T09:28:06.260Z,101026.05
2022-09-07T09:30:34.185Z,101023.90
2022-09-07T09:33:21.325Z,101024.48
2022-09-07T09:35:51.502Z,101023.83
2022-09-07T09:38:40.818Z,101024.70
2022-09-07T09:41:11.305Z,101020.71
2022-09-07T09:43:51.598Z,101016.35
2022-09-07T09:46:31.673Z,101009.95
2022-09-07T09:49:00.717Z,101004.86
2022-09-07T09:54:25.265Z,101002.30
2022-09-07T09:56:53.580Z,101003.98
2022-09-07T10:05:38.165Z,101002.44
2022-09-07T10:08:19.384Z,100999.59
2022-09-07T10:11:14.505Z,101000.59
2022-09-07T10:13:47.034Z,100994.52
2022-09-07T10:16:15.159Z,100993.91
2022-09-07T10:18:57.957Z,100985.48
2022-09-07T10:21:31.152Z,100987.64
2022-09-07T10:24:05.048Z,100979.23
2022-09-07T10:26:35.595Z,100982.65
2022-09-07T10:29:42.397Z,100981.44
2022-09-07T10:32:33.654Z,100973.92
2022-09-07T10:35:36.875Z,100967.34
2022-09-07T10:38:16.499Z,100970.92
2022-09-07T10:40:59.307Z,100968.09
2022-09-07T10:43:48.521Z,100958.64
2022-09-07T10:49:27.524Z,100959.89
2022-09-07T10:51:58.952Z,100961.95
2022-09-07T10:54:53.905Z,100965.30
2022-09-07T10:58:00.996Z,100960.48
2022-09-07T11:00:41.035Z,100958.05
2022-09-07T11:03:25.303Z,100956.09
2022-09-07T11:06:17.926Z,100959.79
2022-09-07T11:12:03.981Z,100951.77
2022-09-07T11:14:44.723Z,100949.73
2022-09-07T11:17:20.980Z,100953.26
2022-09-07T11:19:59.921Z,100952.75
2022-09-07T11:22:35.235Z,100950.77
2022-09-07T11:25:36.908Z,100944.45
2022-09-07T11:28:20.758Z,100945.88
2022-09-07T11:30:59.658Z,100941.61
2022-09-07T11:33:36.615Z,100934.45
2022-09-07T11:36:13.932Z,100930.88
2022-09-07T11:38:54.279Z,100927.59
2022-09-07T11:41:38.635Z,100924.74
2022-09-07T11:44:21.891Z,100921.42
2022-09-07T11:46:53.807Z,100919.34
2022-09-07T11:49:26.277Z,100919.08
2022-09-07T11:52:06.288Z,100918.54
2022-09-07T11:54:57.783Z,100923.51
2022-09-07T11:57:31.819Z,100916.72
2022-09-07T12:00:02.600Z,100918.02
2022-09-07T12:03:16.586Z,100916.99
2022-09-07T12:06:04.180Z,100911.21
2022-09-07T12:09:12.538Z,100907.04
2022-09-07T12:11:55.656Z,100904.56
2022-09-07T12:15:09.747Z,100904.48
2022-09-07T12:18:00.491Z,100904.77
2022-09-07T12:20:49.027Z,100908.10
2022-09-07T12:23:16.999Z,100907.81
2022-09-07T12:25:46.859Z,100904.73
2022-09-07T12:28:37.633Z,100896.17
2022-09-07T12:31:11.412Z,100894.33
2022-09-07T12:33:40.665Z,100891.16
2022-09-07T12:36:34.365Z,100883.62
2022-09-07T12:39:25.817Z,100876.69
2022-09-07T12:42:32.467Z,100870.73
2022-09-07T12:45:29.009Z,100868.45
2022-09-07T12:47:59.752Z,100858.20
2022-09-07T12:50:38.172Z,100860.02
2022-09-07T12:53:13.486Z,100851.40
2022-09-07T12:56:27.751Z,100852.35
2022-09-07T12:59:19.741Z,100854.26
2022-09-07T13:02:15.073Z,100850.14
2022-09-07T13:04:59.060Z,100849.89
2022-09-07T13:07:42.409Z,100844.80
2022-09-07T13:10:31.961Z,100850.05
2022-09-07T13:16:17.844Z,100838.48
2022-09-07T13:18:48.095Z,100838.64
2022-09-07T13:21:18.140Z,100840.13
2022-09-07T13:27:27.424Z,100832.20
2022-09-07T13:30:00.475Z,100830.11
2022-09-07T13:35:22.985Z,100831.23
2022-09-07T13:38:00.948Z,100828.71
2022-09-07T13:40:34.679Z,100831.91
2022-09-07T13:43:04.449Z,100825.86
2022-09-07T13:45:45.826Z,100828.57
2022-09-07T13:48:28.228Z,100830.80
2022-09-07T13:51:13.473Z,100829.95
2022-09-07T13:53:47.442Z,100828.87
2022-09-07T13:56:46.596Z,100827.11
2022-09-07T13:59:31.206Z,100821.96
2022-09-07T14:02:00.204Z,100818.02
2022-09-07T14:04:49.486Z,100810.61
2022-09-07T14:07:22.130Z,100809.55
2022-09-07T14:10:03.542Z,100809.17
2022-09-07T14:12:42.733Z,100801.94
2022-09-07T14:15:19.001Z,100800.78
2022-09-07T14:17:48.624Z,100803.83
2022-09-07T14:20:18.672Z,100802.13
2022-09-07T14:22:50.641Z,100796.77
2022-09-07T14:25:22.951Z,100798.63
2022-09-07T14:27:51.360Z,100788.73
2022-09-07T14:30:19.033Z,100788.07
2022-09-07T14:32:49.084Z,100788.88
2022-09-07T14:35:20.121Z,100790.49
2022-09-07T14:37:49.866Z,100792.17
2022-09-07T14:40:24.008Z,100784.45
2022-09-07T14:42:56.025Z,100781.14
2022-09-07T14:45:24.001Z,100765.52
2022-09-07T14:47:56.856Z,100772.18
2022-09-07T14:50:33.888Z,100768.54
2022-09-07T14:56:10.070Z,100771.19
2022-09-07T14:58:38.027Z,100765.38
2022-09-07T15:01:48.896Z,100768.49
2022-09-07T15:04:19.566Z,100766.84
2022-09-07T15:07:03.521Z,100762.81
2022-09-07T15:09:37.403Z,100756.70
2022-09-07T15:12:29.725Z,100757.20
2022-09-07T15:15:22.282Z,100758.89
2022-09-07T15:17:52.389Z,100763.27
2022-09-07T15:20:36.309Z,100765.54
2022-09-07T15:23:32.053Z,100765.48
2022-09-07T15:26:00.148Z,100765.68
2022-09-07T15:34:15.790Z,100767.77
2022-09-07T15:36:51.034Z,100767.01
2022-09-07T15:39:25.290Z,100768.28
2022-09-07T15:41:54.506Z,100767.59
2022-09-07T15:44:26.037Z,100762.92
2022-09-07T15:49:50.048Z,100754.29
2022-09-07T15:52:19.136Z,100758.34
2022-09-07T15:54:47.052Z,100761.58
2022-09-07T16:00:04.727Z,100757.91
2022-09-07T16:05:31.185Z,100758.74
2022-09-07T16:11:05.443Z,100754.27
2022-09-07T16:13:42.795Z,100753.13
2022-09-07T16:16:15.494Z,100749.95
2022-09-07T16:18:46.958Z,100745.90
2022-09-07T16:21:15.998Z,100739.00
2022-09-07T16:23:52.147Z,100740.42
2022-09-07T16:26:25.428Z,100738.86
2022-09-07T16:28:53.977Z,100739.91
2022-09-07T16:31:26.358Z,100737.62
2022-09-07T16:33:54.765Z,100735.75
2022-09-07T16:36:23.768Z,100736.12
2022-09-07T16:38:59.639Z,100726.54
2022-09-07T16:41:34.764Z,100721.73
2022-09-07T16:44:03.062Z,100727.48
2022-09-07T16:46:31.177Z,100732.36
2022-09-07T16:48:58.921Z,100731.71
2022-09-07T16:51:28.582Z,100732.24
2022-09-07T16:53:59.780Z,100736.61
2022-09-07T16:56:30.787Z,100740.10
2022-09-07T16:59:02.116Z,100741.09
2022-09-07T17:01:32.621Z,100737.70
2022-09-07T17:04:04.487Z,100736.70
2022-09-07T17:06:36.394Z,100733.14
2022-09-07T17:09:05.368Z,100733.05
2022-09-07T17:11:36.727Z,100735.65
2022-09-07T17:14:06.778Z,100735.56
2022-09-07T17:16:38.888Z,100737.14
2022-09-07T17:19:30.114Z,100736.31
2022-09-07T17:22:02.215Z,100733.81
2022-09-07T17:24:32.225Z,100741.79
2022-09-07T17:27:01.223Z,100740.47
2022-09-07T17:29:37.142Z,100756.19
2022-09-07T17:34:55.899Z,100751.60
2022-09-07T17:37:26.907Z,100749.98
2022-09-07T17:40:08.341Z,100747.09
2022-09-07T17:45:34.170Z,100754.43
2022-09-07T17:48:16.321Z,100757.65
2022-09-07T17:50:48.453Z,100764.02
2022-09-07T17:53:17.567Z,100761.27
2022-09-07T17:55:50.067Z,100762.98
2022-09-07T17:58:29.268Z,100759.63
2022-09-07T18:01:30.974Z,100763.63
2022-09-07T18:03:59.575Z,100766.34
2022-09-07T18:06:32.140Z,100763.19
2022-09-07T18:09:04.052Z,100769.52
2022-09-07T18:11:45.490Z,100771.61
2022-09-07T18:14:19.162Z,100722.67
2022-09-07T18:16:50.002Z,100769.77
2022-09-07T18:19:19.514Z,100766.40
2022-09-07T18:21:52.010Z,100765.40
2022-09-07T18:24:23.775Z,100762.77
2022-09-07T18:26:54.255Z,100763.08
2022-09-07T18:29:34.246Z,100761.59
2022-09-07T18:32:08.025Z,100759.11
2022-09-07T18:34:40.701Z,100759.39
2022-09-07T18:37:12.773Z,100756.21
2022-09-07T18:39:41.752Z,100756.95
2022-09-07T18:42:10.303Z,100756.63
2022-09-07T18:47:29.565Z,100762.38
2022-09-07T18:49:58.817Z,100760.90
2022-09-07T18:55:16.413Z,100770.38
2022-09-07T18:57:44.906Z,100771.86
2022-09-07T19:00:14.371Z,100753.98
2022-09-07T19:02:42.486Z,100767.05
2022-09-07T19:07:59.759Z,100758.98
2022-09-07T19:10:27.883Z,100772.64
2022-09-07T19:12:56.534Z,100759.36
2022-09-07T19:15:25.518Z,100764.38
2022-09-07T19:17:53.570Z,100772.20
2022-09-07T19:20:21.939Z,100773.64
2022-09-07T19:22:49.890Z,100773.45
2022-09-07T19:25:19.464Z,100776.14
2022-09-07T19:27:47.456Z,100774.70
2022-09-07T19:30:17.479Z,100774.99
2022-09-07T19:32:45.412Z,100770.63
2022-09-07T19:35:13.487Z,100768.59
2022-09-07T19:37:44.670Z,100765.38
2022-09-07T19:40:18.627Z,100763.86
2022-09-07T19:42:47.944Z,100762.30
2022-09-07T19:45:16.064Z,100751.45
2022-09-07T19:47:44.531Z,100762.23
2022-09-07T19:50:12.725Z,100760.61
2022-09-07T19:52:40.874Z,100760.91
2022-09-07T19:55:09.244Z,100764.46
2022-09-07T19:57:37.368Z,100766.20
2022-09-07T20:00:06.099Z,100766.53
2022-09-07T20:02:40.546Z,100750.19
2022-09-07T20:05:08.794Z,100769.61
2022-09-07T20:07:36.588Z,100768.94
2022-09-07T20:10:06.975Z,100772.36
2022-09-07T20:12:34.922Z,100769.77
2022-09-07T20:15:02.714Z,100769.33
2022-09-07T20:17:35.057Z,100763.91
2022-09-07T20:20:04.734Z,100766.38
2022-09-07T20:22:32.967Z,100772.02
2022-09-07T20:25:01.040Z,100769.55
2022-09-07T20:27:29.113Z,100766.34
2022-09-07T20:29:57.097Z,100767.73
2022-09-07T20:32:24.905Z,100771.95
2022-09-07T20:34:53.411Z,100765.77
2022-09-07T20:37:25.510Z,100764.83
2022-09-07T20:39:53.426Z,100762.92
2022-09-07T20:42:22.085Z,100760.96
2022-09-07T20:44:50.262Z,100769.84
2022-09-07T20:47:18.156Z,100770.33
2022-09-07T20:49:46.391Z,100774.06
2022-09-07T20:52:14.960Z,100775.08
2022-09-07T20:54:42.781Z,100775.70
2022-09-07T20:57:11.020Z,100774.69
2022-09-07T20:59:39.501Z,100775.30
2022-09-07T21:02:09.892Z,100774.34
2022-09-07T21:04:37.972Z,100776.50
2022-09-07T21:07:06.109Z,100776.45
2022-09-07T21:09:34.238Z,100776.02
2022-09-07T21:12:02.721Z,100774.71
2022-09-07T21:14:30.846Z,100775.92
2022-09-07T21:16:58.760Z,100780.71
2022-09-07T21:19:26.630Z,100785.67
2022-09-07T21:21:54.600Z,100786.36
2022-09-07T21:24:23.695Z,100788.21
2022-09-07T21:26:52.148Z,100782.17
2022-09-07T21:29:23.808Z,100782.95
2022-09-07T21:31:55.296Z,100789.70
2022-09-07T21:34:23.372Z,100789.33
2022-09-07T21:36:52.134Z,100790.71
2022-09-07T21:39:21.489Z,100786.89
2022-09-07T21:41:49.531Z,100783.42
2022-09-07T21:44:17.658Z,100780.33
2022-09-07T21:46:46.000Z,100776.68
2022-09-07T21:49:14.491Z,100767.52
2022-09-07T21:51:42.417Z,100770.11
2022-09-07T21:54:10.624Z,100775.71
2022-09-07T21:56:41.071Z,100782.48
2022-09-07T21:59:13.275Z,100781.63
2022-09-07T22:01:42.211Z,100784.31
2022-09-07T22:04:10.707Z,100783.33
2022-09-07T22:06:45.126Z,100766.09
2022-09-07T22:09:13.728Z,100776.26
2022-09-07T22:11:45.853Z,100776.65
2022-09-07T22:14:16.344Z,100775.73
2022-09-07T22:16:45.253Z,100773.69
2022-09-07T22:19:13.503Z,100772.63
2022-09-07T22:21:41.934Z,100774.27
2022-09-07T22:24:12.396Z,100768.73
2022-09-07T22:26:40.270Z,100768.78
2022-09-07T22:29:10.974Z,100766.84
2022-09-07T22:31:40.159Z,100769.40
2022-09-07T22:34:09.572Z,100774.29
2022-09-07T22:36:43.619Z,100779.08
2022-09-07T22:39:18.070Z,100781.08
2022-09-07T22:41:47.907Z,100777.23
2022-09-07T22:44:18.763Z,100759.78
2022-09-07T22:46:48.316Z,100777.73
2022-09-07T22:49:17.219Z,100775.52
2022-09-07T22:51:45.488Z,100776.52
2022-09-07T22:54:14.367Z,100776.10
2022-09-07T22:56:42.479Z,100775.58
2022-09-07T22:59:12.082Z,100772.99
2022-09-07T23:01:40.072Z,100772.57
2022-09-07T23:04:08.854Z,100769.63
2022-09-07T23:06:43.118Z,100767.53
2022-09-07T23:09:14.678Z,100764.69
2022-09-07T23:11:43.514Z,100763.02
2022-09-07T23:14:15.306Z,100759.91
2022-09-07T23:16:45.018Z,100758.57
2022-09-07T23:19:14.865Z,100759.06
2022-09-07T23:21:43.732Z,100760.27
2022-09-07T23:24:19.483Z,100766.90
2022-09-07T23:26:47.787Z,100763.33
2022-09-07T23:29:16.283Z,100758.70
2022-09-07T23:31:45.704Z,100755.23
2022-09-07T23:34:13.783Z,100755.11
2022-09-07T23:36:42.707Z,100758.90
2022-09-07T23:39:11.231Z,100757.62
2022-09-07T23:41:39.377Z,100755.57
2022-09-07T23:44:07.557Z,100750.95
2022-09-07T23:46:35.474Z,100750.28
2022-09-07T23:49:03.625Z,100751.20
2022-09-07T23:51:31.774Z,100749.79
2022-09-07T23:53:59.858Z,100751.64
2022-09-07T23:56:28.170Z,100751.52
2022-09-07T23:58:56.232Z,100748.27
